sensor_id;sensor_type;location;lat;lon;timestamp;temperature;humidity
13470;DHT22;6807;48.682;9.032;2023-07-31T00:01:55;12.60;9.50
13470;DHT22;6807;48.682;9.032;2023-07-31T00:04:21;12.60;1.00
13470;DHT22;6807;48.682;9.032;2023-07-31T00:06:48;12.50;11.00
13470;DHT22;6807;48.682;9.032;2023-07-31T00:09:15;12.50;6.20
13470;DHT22;6807;48.682;9.032;2023-07-31T00:11:43;12.50;15.60
13470;DHT22;6807;48.682;9.032;2023-07-31T00:14:10;12.50;9.30
13470;DHT22;6807;48.682;9.032;2023-07-31T00:16:36;12.60;1.00
13470;DHT22;6807;48.682;9.032;2023-07-31T00:19:03;12.60;1.00
13470;DHT22;6807;48.682;9.032;2023-07-31T00:21:30;12.60;1.00
13470;DHT22;6807;48.682;9.032;2023-07-31T00:23:57;12.60;1.00
13470;DHT22;6807;48.682;9.032;2023-07-31T00:26:23;12.60;1.00
13470;DHT22;6807;48.682;9.032;2023-07-31T00:28:52;12.60;1.00
13470;DHT22;6807;48.682;9.032;2023-07-31T00:31:18;12.60;1.00
13470;DHT22;6807;48.682;9.032;2023-07-31T00:33:45;12.70;1.00
13470;DHT22;6807;48.682;9.032;2023-07-31T00:36:12;12.70;1.00
13470;DHT22;6807;48.682;9.032;2023-07-31T00:38:39;12.70;1.00
13470;DHT22;6807;48.682;9.032;2023-07-31T00:41:05;12.60;1.00
13470;DHT22;6807;48.682;9.032;2023-07-31T00:43:32;12.60;1.00
13470;DHT22;6807;48.682;9.032;2023-07-31T00:46:00;12.70;1.00
13470;DHT22;6807;48.682;9.032;2023-07-31T00:48:27;12.80;1.00
13470;DHT22;6807;48.682;9.032;2023-07-31T00:50:54;13.00;1.00
13470;DHT22;6807;48.682;9.032;2023-07-31T00:53:21;13.00;1.00
13470;DHT22;6807;48.682;9.032;2023-07-31T00:55:48;13.20;1.00
13470;DHT22;6807;48.682;9.032;2023-07-31T00:58:15;13.10;1.00
13470;DHT22;6807;48.682;9.032;2023-07-31T01:00:42;13.00;1.00
13470;DHT22;6807;48.682;9.032;2023-07-31T01:03:11;13.00;1.00
13470;DHT22;6807;48.682;9.032;2023-07-31T01:05:49;13.00;1.00
13470;DHT22;6807;48.682;9.032;2023-07-31T01:08:23;13.10;1.00
13470;DHT22;6807;48.682;9.032;2023-07-31T01:10:55;13.30;1.00
13470;DHT22;6807;48.682;9.032;2023-07-31T01:13:23;13.30;1.00
13470;DHT22;6807;48.682;9.032;2023-07-31T01:15:50;13.30;1.00
13470;DHT22;6807;48.682;9.032;2023-07-31T01:18:18;13.30;1.00
13470;DHT22;6807;48.682;9.032;2023-07-31T01:20:53;13.40;99.90
13470;DHT22;6807;48.682;9.032;2023-07-31T01:23:32;13.30;1.00
13470;DHT22;6807;48.682;9.032;2023-07-31T01:26:10;13.30;1.00
13470;DHT22;6807;48.682;9.032;2023-07-31T01:28:47;13.30;1.00
13470;DHT22;6807;48.682;9.032;2023-07-31T01:31:20;13.30;1.00
13470;DHT22;6807;48.682;9.032;2023-07-31T01:33:48;13.10;1.00
13470;DHT22;6807;48.682;9.032;2023-07-31T01:36:16;13.10;1.00
13470;DHT22;6807;48.682;9.032;2023-07-31T01:41:11;13.20;1.00
13470;DHT22;6807;48.682;9.032;2023-07-31T01:43:38;13.30;1.00
13470;DHT22;6807;48.682;9.032;2023-07-31T01:46:05;13.30;1.00
13470;DHT22;6807;48.682;9.032;2023-07-31T01:48:32;13.40;99.90
13470;DHT22;6807;48.682;9.032;2023-07-31T01:51:01;13.30;1.00
13470;DHT22;6807;48.682;9.032;2023-07-31T01:53:28;13.30;1.00
13470;DHT22;6807;48.682;9.032;2023-07-31T01:55:55;13.20;1.00
13470;DHT22;6807;48.682;9.032;2023-07-31T01:58:23;13.10;1.00
13470;DHT22;6807;48.682;9.032;2023-07-31T02:00:50;13.30;1.00
13470;DHT22;6807;48.682;9.032;2023-07-31T02:03:17;12.90;1.00
13470;DHT22;6807;48.682;9.032;2023-07-31T02:05:47;12.80;1.00
13470;DHT22;6807;48.682;9.032;2023-07-31T02:08:14;12.70;1.00
13470;DHT22;6807;48.682;9.032;2023-07-31T02:10:41;12.60;1.00
13470;DHT22;6807;48.682;9.032;2023-07-31T02:13:08;12.60;1.00
13470;DHT22;6807;48.682;9.032;2023-07-31T02:15:37;12.50;1.00
13470;DHT22;6807;48.682;9.032;2023-07-31T02:18:04;12.50;1.00
13470;DHT22;6807;48.682;9.032;2023-07-31T02:20:33;12.40;1.00
13470;DHT22;6807;48.682;9.032;2023-07-31T02:23:00;12.50;1.00
13470;DHT22;6807;48.682;9.032;2023-07-31T02:25:27;12.50;1.00
13470;DHT22;6807;48.682;9.032;2023-07-31T02:27:54;12.50;1.00
13470;DHT22;6807;48.682;9.032;2023-07-31T02:30:20;12.60;1.00
13470;DHT22;6807;48.682;9.032;2023-07-31T02:32:49;12.70;1.00
13470;DHT22;6807;48.682;9.032;2023-07-31T02:35:15;12.80;1.00
13470;DHT22;6807;48.682;9.032;2023-07-31T02:37:44;13.00;1.00
13470;DHT22;6807;48.682;9.032;2023-07-31T02:40:11;13.00;1.00
13470;DHT22;6807;48.682;9.032;2023-07-31T02:42:38;13.20;1.00
13470;DHT22;6807;48.682;9.032;2023-07-31T02:45:06;13.20;1.00
13470;DHT22;6807;48.682;9.032;2023-07-31T02:47:33;13.20;99.90
13470;DHT22;6807;48.682;9.032;2023-07-31T02:50:01;13.20;99.90
13470;DHT22;6807;48.682;9.032;2023-07-31T02:52:28;13.00;99.90
13470;DHT22;6807;48.682;9.032;2023-07-31T02:54:55;13.10;99.90
13470;DHT22;6807;48.682;9.032;2023-07-31T02:57:22;13.10;99.90
13470;DHT22;6807;48.682;9.032;2023-07-31T02:59:48;13.00;99.90
13470;DHT22;6807;48.682;9.032;2023-07-31T03:02:15;13.00;99.90
13470;DHT22;6807;48.682;9.032;2023-07-31T03:04:42;13.10;99.90
13470;DHT22;6807;48.682;9.032;2023-07-31T03:07:10;13.10;99.90
13470;DHT22;6807;48.682;9.032;2023-07-31T03:09:37;13.10;99.90
13470;DHT22;6807;48.682;9.032;2023-07-31T03:12:04;13.10;99.90
13470;DHT22;6807;48.682;9.032;2023-07-31T03:14:31;13.10;99.90
13470;DHT22;6807;48.682;9.032;2023-07-31T03:16:58;12.90;99.90
13470;DHT22;6807;48.682;9.032;2023-07-31T03:19:25;13.10;99.90
13470;DHT22;6807;48.682;9.032;2023-07-31T03:21:52;13.00;99.90
13470;DHT22;6807;48.682;9.032;2023-07-31T03:24:20;13.00;99.90
13470;DHT22;6807;48.682;9.032;2023-07-31T03:26:47;13.00;99.90
13470;DHT22;6807;48.682;9.032;2023-07-31T03:29:14;13.10;99.90
13470;DHT22;6807;48.682;9.032;2023-07-31T03:31:40;13.10;99.90
13470;DHT22;6807;48.682;9.032;2023-07-31T03:34:07;13.20;99.90
13470;DHT22;6807;48.682;9.032;2023-07-31T03:36:34;13.20;99.90
13470;DHT22;6807;48.682;9.032;2023-07-31T03:39:01;13.20;99.90
13470;DHT22;6807;48.682;9.032;2023-07-31T03:41:29;13.20;99.90
13470;DHT22;6807;48.682;9.032;2023-07-31T03:43:55;13.20;99.90
13470;DHT22;6807;48.682;9.032;2023-07-31T03:46:22;13.30;99.90
13470;DHT22;6807;48.682;9.032;2023-07-31T03:48:50;13.40;99.90
13470;DHT22;6807;48.682;9.032;2023-07-31T03:51:16;13.40;99.90
13470;DHT22;6807;48.682;9.032;2023-07-31T03:53:44;13.50;99.90
13470;DHT22;6807;48.682;9.032;2023-07-31T03:56:11;13.50;99.90
13470;DHT22;6807;48.682;9.032;2023-07-31T03:58:39;13.60;99.90
13470;DHT22;6807;48.682;9.032;2023-07-31T04:01:06;13.70;99.90
13470;DHT22;6807;48.682;9.032;2023-07-31T04:03:33;13.90;99.90
13470;DHT22;6807;48.682;9.032;2023-07-31T04:05:59;13.90;99.90
13470;DHT22;6807;48.682;9.032;2023-07-31T04:08:26;13.90;99.90
13470;DHT22;6807;48.682;9.032;2023-07-31T04:10:53;14.00;99.90
13470;DHT22;6807;48.682;9.032;2023-07-31T04:13:21;13.90;99.90
13470;DHT22;6807;48.682;9.032;2023-07-31T04:15:50;13.90;99.90
13470;DHT22;6807;48.682;9.032;2023-07-31T04:18:17;14.00;99.90
13470;DHT22;6807;48.682;9.032;2023-07-31T04:20:44;14.00;99.90
13470;DHT22;6807;48.682;9.032;2023-07-31T04:23:10;14.60;99.90
13470;DHT22;6807;48.682;9.032;2023-07-31T04:25:37;15.40;99.90
13470;DHT22;6807;48.682;9.032;2023-07-31T04:28:04;14.10;99.90
13470;DHT22;6807;48.682;9.032;2023-07-31T04:32:59;14.10;99.90
13470;DHT22;6807;48.682;9.032;2023-07-31T04:35:26;14.20;99.90
13470;DHT22;6807;48.682;9.032;2023-07-31T04:37:53;14.20;99.90
13470;DHT22;6807;48.682;9.032;2023-07-31T04:40:20;14.30;99.90
13470;DHT22;6807;48.682;9.032;2023-07-31T04:42:47;14.40;99.90
13470;DHT22;6807;48.682;9.032;2023-07-31T04:45:14;14.40;99.90
13470;DHT22;6807;48.682;9.032;2023-07-31T04:47:41;14.50;99.90
13470;DHT22;6807;48.682;9.032;2023-07-31T04:50:10;14.50;99.90
13470;DHT22;6807;48.682;9.032;2023-07-31T04:52:36;14.50;84.30
13470;DHT22;6807;48.682;9.032;2023-07-31T04:55:04;14.50;92.20
13470;DHT22;6807;48.682;9.032;2023-07-31T04:57:30;14.60;82.40
13470;DHT22;6807;48.682;9.032;2023-07-31T04:59:57;15.00;89.30
13470;DHT22;6807;48.682;9.032;2023-07-31T05:02:24;14.60;44.90
13470;DHT22;6807;48.682;9.032;2023-07-31T05:04:51;14.60;68.80
13470;DHT22;6807;48.682;9.032;2023-07-31T05:07:19;14.60;71.60
13470;DHT22;6807;48.682;9.032;2023-07-31T05:09:46;14.80;30.00
13470;DHT22;6807;48.682;9.032;2023-07-31T05:12:12;14.80;41.10
13470;DHT22;6807;48.682;9.032;2023-07-31T05:14:39;14.80;82.10
13470;DHT22;6807;48.682;9.032;2023-07-31T05:17:06;14.90;1.00
13470;DHT22;6807;48.682;9.032;2023-07-31T05:19:33;14.90;27.70
13470;DHT22;6807;48.682;9.032;2023-07-31T05:22:00;17.00;50.50
13470;DHT22;6807;48.682;9.032;2023-07-31T05:24:28;15.00;14.20
13470;DHT22;6807;48.682;9.032;2023-07-31T05:26:55;15.40;1.00
13470;DHT22;6807;48.682;9.032;2023-07-31T05:29:22;15.10;9.20
13470;DHT22;6807;48.682;9.032;2023-07-31T05:31:48;15.10;1.00
13470;DHT22;6807;48.682;9.032;2023-07-31T05:34:15;15.20;1.00
13470;DHT22;6807;48.682;9.032;2023-07-31T05:36:42;15.30;1.00
13470;DHT22;6807;48.682;9.032;2023-07-31T05:39:09;15.30;1.00
13470;DHT22;6807;48.682;9.032;2023-07-31T05:41:37;15.40;1.00
13470;DHT22;6807;48.682;9.032;2023-07-31T05:44:04;15.50;1.00
13470;DHT22;6807;48.682;9.032;2023-07-31T05:46:30;15.50;1.00
13470;DHT22;6807;48.682;9.032;2023-07-31T05:48:58;15.70;1.00
13470;DHT22;6807;48.682;9.032;2023-07-31T05:51:26;15.80;1.00
13470;DHT22;6807;48.682;9.032;2023-07-31T05:56:20;16.00;1.00
13470;DHT22;6807;48.682;9.032;2023-07-31T05:58:48;16.10;1.00
13470;DHT22;6807;48.682;9.032;2023-07-31T06:01:16;16.10;1.00
13470;DHT22;6807;48.682;9.032;2023-07-31T06:03:42;16.80;1.00
13470;DHT22;6807;48.682;9.032;2023-07-31T06:06:09;16.80;1.00
13470;DHT22;6807;48.682;9.032;2023-07-31T06:08:36;16.40;1.00
13470;DHT22;6807;48.682;9.032;2023-07-31T06:11:03;16.40;1.00
13470;DHT22;6807;48.682;9.032;2023-07-31T06:13:30;16.40;1.00
13470;DHT22;6807;48.682;9.032;2023-07-31T06:15:58;16.50;1.00
13470;DHT22;6807;48.682;9.032;2023-07-31T06:18:25;16.70;1.00
13470;DHT22;6807;48.682;9.032;2023-07-31T06:20:52;16.60;1.00
13470;DHT22;6807;48.682;9.032;2023-07-31T06:23:19;16.80;1.00
13470;DHT22;6807;48.682;9.032;2023-07-31T06:25:46;16.80;1.00
13470;DHT22;6807;48.682;9.032;2023-07-31T06:28:13;16.90;1.00
13470;DHT22;6807;48.682;9.032;2023-07-31T06:30:39;18.40;1.00
13470;DHT22;6807;48.682;9.032;2023-07-31T06:33:08;17.30;1.00
13470;DHT22;6807;48.682;9.032;2023-07-31T06:35:35;17.50;1.00
13470;DHT22;6807;48.682;9.032;2023-07-31T06:38:01;18.20;1.00
13470;DHT22;6807;48.682;9.032;2023-07-31T06:40:29;17.90;1.00
13470;DHT22;6807;48.682;9.032;2023-07-31T06:42:56;18.40;99.90
13470;DHT22;6807;48.682;9.032;2023-07-31T06:45:22;18.20;99.90
13470;DHT22;6807;48.682;9.032;2023-07-31T06:47:49;18.10;99.90
13470;DHT22;6807;48.682;9.032;2023-07-31T06:50:17;18.00;99.90
13470;DHT22;6807;48.682;9.032;2023-07-31T06:52:44;18.00;99.90
13470;DHT22;6807;48.682;9.032;2023-07-31T06:55:18;18.50;99.90
13470;DHT22;6807;48.682;9.032;2023-07-31T06:57:45;18.40;99.90
13470;DHT22;6807;48.682;9.032;2023-07-31T07:00:13;18.90;99.90
13470;DHT22;6807;48.682;9.032;2023-07-31T07:02:39;18.40;99.90
13470;DHT22;6807;48.682;9.032;2023-07-31T07:05:07;18.30;99.90
13470;DHT22;6807;48.682;9.032;2023-07-31T07:07:35;18.30;99.90
13470;DHT22;6807;48.682;9.032;2023-07-31T07:10:03;18.40;99.90
13470;DHT22;6807;48.682;9.032;2023-07-31T07:12:31;18.50;99.90
13470;DHT22;6807;48.682;9.032;2023-07-31T07:14:58;19.10;99.90
13470;DHT22;6807;48.682;9.032;2023-07-31T07:17:25;18.50;99.90
13470;DHT22;6807;48.682;9.032;2023-07-31T07:19:53;19.00;99.90
13470;DHT22;6807;48.682;9.032;2023-07-31T07:22:20;18.90;99.90
13470;DHT22;6807;48.682;9.032;2023-07-31T07:24:48;18.80;99.90
13470;DHT22;6807;48.682;9.032;2023-07-31T07:27:15;18.80;99.90
13470;DHT22;6807;48.682;9.032;2023-07-31T07:29:42;19.50;99.90
13470;DHT22;6807;48.682;9.032;2023-07-31T07:32:09;19.00;99.90
13470;DHT22;6807;48.682;9.032;2023-07-31T07:34:37;19.70;99.90
13470;DHT22;6807;48.682;9.032;2023-07-31T07:37:04;19.60;99.90
13470;DHT22;6807;48.682;9.032;2023-07-31T07:39:31;18.90;99.90
13470;DHT22;6807;48.682;9.032;2023-07-31T07:41:59;19.00;99.90
13470;DHT22;6807;48.682;9.032;2023-07-31T07:44:26;19.20;99.90
13470;DHT22;6807;48.682;9.032;2023-07-31T07:46:53;19.50;99.90
13470;DHT22;6807;48.682;9.032;2023-07-31T07:49:20;19.80;99.90
13470;DHT22;6807;48.682;9.032;2023-07-31T07:51:48;20.10;99.90
13470;DHT22;6807;48.682;9.032;2023-07-31T07:54:14;20.40;99.90
13470;DHT22;6807;48.682;9.032;2023-07-31T07:56:42;20.80;99.90
13470;DHT22;6807;48.682;9.032;2023-07-31T07:59:10;20.50;99.90
13470;DHT22;6807;48.682;9.032;2023-07-31T08:01:37;21.00;99.90
13470;DHT22;6807;48.682;9.032;2023-07-31T08:04:04;21.30;99.90
13470;DHT22;6807;48.682;9.032;2023-07-31T08:06:31;21.80;99.90
13470;DHT22;6807;48.682;9.032;2023-07-31T08:08:57;22.20;99.90
13470;DHT22;6807;48.682;9.032;2023-07-31T08:11:24;22.30;99.90
13470;DHT22;6807;48.682;9.032;2023-07-31T08:13:51;22.40;99.90
13470;DHT22;6807;48.682;9.032;2023-07-31T08:16:19;22.50;99.90
13470;DHT22;6807;48.682;9.032;2023-07-31T08:18:46;22.70;99.90
13470;DHT22;6807;48.682;9.032;2023-07-31T08:21:14;22.50;99.90
13470;DHT22;6807;48.682;9.032;2023-07-31T08:23:41;22.90;99.90
13470;DHT22;6807;48.682;9.032;2023-07-31T08:26:08;23.20;99.90
13470;DHT22;6807;48.682;9.032;2023-07-31T08:28:34;23.60;99.90
13470;DHT22;6807;48.682;9.032;2023-07-31T08:31:02;23.90;99.90
13470;DHT22;6807;48.682;9.032;2023-07-31T08:33:30;24.00;99.90
13470;DHT22;6807;48.682;9.032;2023-07-31T08:35:57;24.10;1.00
13470;DHT22;6807;48.682;9.032;2023-07-31T08:38:25;24.40;99.90
13470;DHT22;6807;48.682;9.032;2023-07-31T08:40:52;24.70;1.00
13470;DHT22;6807;48.682;9.032;2023-07-31T08:43:20;25.00;99.90
13470;DHT22;6807;48.682;9.032;2023-07-31T08:45:50;24.70;99.90
13470;DHT22;6807;48.682;9.032;2023-07-31T08:48:17;23.80;99.90
13470;DHT22;6807;48.682;9.032;2023-07-31T08:50:47;22.50;99.90
13470;DHT22;6807;48.682;9.032;2023-07-31T08:53:14;21.90;99.90
13470;DHT22;6807;48.682;9.032;2023-07-31T08:55:42;21.80;99.90
13470;DHT22;6807;48.682;9.032;2023-07-31T08:58:10;21.30;99.90
13470;DHT22;6807;48.682;9.032;2023-07-31T09:00:40;21.10;99.90
13470;DHT22;6807;48.682;9.032;2023-07-31T09:03:12;20.80;99.90
13470;DHT22;6807;48.682;9.032;2023-07-31T09:05:42;20.80;99.90
13470;DHT22;6807;48.682;9.032;2023-07-31T09:08:11;20.60;99.90
13470;DHT22;6807;48.682;9.032;2023-07-31T09:10:40;20.60;99.90
13470;DHT22;6807;48.682;9.032;2023-07-31T09:13:08;21.10;99.90
13470;DHT22;6807;48.682;9.032;2023-07-31T09:15:35;21.00;99.90
13470;DHT22;6807;48.682;9.032;2023-07-31T09:18:03;21.50;99.90
13470;DHT22;6807;48.682;9.032;2023-07-31T09:20:30;22.80;99.90
13470;DHT22;6807;48.682;9.032;2023-07-31T09:23:05;23.70;99.90
13470;DHT22;6807;48.682;9.032;2023-07-31T09:25:34;23.60;99.90
13470;DHT22;6807;48.682;9.032;2023-07-31T09:28:03;23.30;99.90
13470;DHT22;6807;48.682;9.032;2023-07-31T09:30:30;23.00;99.90
13470;DHT22;6807;48.682;9.032;2023-07-31T09:33:01;22.10;99.90
13470;DHT22;6807;48.682;9.032;2023-07-31T09:35:29;22.00;99.90
13470;DHT22;6807;48.682;9.032;2023-07-31T09:37:58;22.10;99.90
13470;DHT22;6807;48.682;9.032;2023-07-31T09:40:26;21.80;99.90
13470;DHT22;6807;48.682;9.032;2023-07-31T09:42:55;22.40;99.90
13470;DHT22;6807;48.682;9.032;2023-07-31T09:45:23;21.90;99.90
13470;DHT22;6807;48.682;9.032;2023-07-31T09:47:49;22.00;99.90
13470;DHT22;6807;48.682;9.032;2023-07-31T09:50:17;21.90;99.90
13470;DHT22;6807;48.682;9.032;2023-07-31T09:52:44;22.40;99.90
13470;DHT22;6807;48.682;9.032;2023-07-31T09:55:10;22.40;99.90
13470;DHT22;6807;48.682;9.032;2023-07-31T09:57:40;22.20;99.90
13470;DHT22;6807;48.682;9.032;2023-07-31T10:00:09;22.20;99.90
13470;DHT22;6807;48.682;9.032;2023-07-31T10:02:37;23.00;99.90
13470;DHT22;6807;48.682;9.032;2023-07-31T10:05:06;24.30;99.90
13470;DHT22;6807;48.682;9.032;2023-07-31T10:07:36;24.40;99.90
13470;DHT22;6807;48.682;9.032;2023-07-31T10:10:04;24.50;99.90
13470;DHT22;6807;48.682;9.032;2023-07-31T10:12:33;25.70;99.90
13470;DHT22;6807;48.682;9.032;2023-07-31T10:15:00;24.00;99.90
13470;DHT22;6807;48.682;9.032;2023-07-31T10:17:29;24.50;99.90
13470;DHT22;6807;48.682;9.032;2023-07-31T10:19:57;24.90;99.90
13470;DHT22;6807;48.682;9.032;2023-07-31T10:22:24;24.90;99.90
13470;DHT22;6807;48.682;9.032;2023-07-31T10:24:52;24.00;99.90
13470;DHT22;6807;48.682;9.032;2023-07-31T10:27:21;23.60;99.90
13470;DHT22;6807;48.682;9.032;2023-07-31T10:29:48;24.50;99.90
13470;DHT22;6807;48.682;9.032;2023-07-31T10:32:15;25.20;99.90
13470;DHT22;6807;48.682;9.032;2023-07-31T10:34:45;26.40;99.90
13470;DHT22;6807;48.682;9.032;2023-07-31T10:37:28;26.60;99.90
13470;DHT22;6807;48.682;9.032;2023-07-31T10:39:59;26.50;99.90
13470;DHT22;6807;48.682;9.032;2023-07-31T10:42:34;25.90;99.90
13470;DHT22;6807;48.682;9.032;2023-07-31T10:45:03;26.50;99.90
13470;DHT22;6807;48.682;9.032;2023-07-31T10:47:30;27.10;99.90
13470;DHT22;6807;48.682;9.032;2023-07-31T10:50:18;26.10;99.90
13470;DHT22;6807;48.682;9.032;2023-07-31T10:52:47;25.20;99.90
13470;DHT22;6807;48.682;9.032;2023-07-31T10:55:16;24.90;99.90
13470;DHT22;6807;48.682;9.032;2023-07-31T10:57:48;24.40;99.90
13470;DHT22;6807;48.682;9.032;2023-07-31T11:00:20;24.00;99.90
13470;DHT22;6807;48.682;9.032;2023-07-31T11:03:06;24.10;99.90
13470;DHT22;6807;48.682;9.032;2023-07-31T11:05:46;23.80;99.90
13470;DHT22;6807;48.682;9.032;2023-07-31T11:08:14;23.70;99.90
13470;DHT22;6807;48.682;9.032;2023-07-31T11:10:42;23.70;99.90
13470;DHT22;6807;48.682;9.032;2023-07-31T11:13:09;23.20;99.90
13470;DHT22;6807;48.682;9.032;2023-07-31T11:15:36;23.20;99.90
13470;DHT22;6807;48.682;9.032;2023-07-31T11:18:03;23.10;99.90
13470;DHT22;6807;48.682;9.032;2023-07-31T11:20:31;23.30;99.90
13470;DHT22;6807;48.682;9.032;2023-07-31T11:23:00;23.50;99.90
13470;DHT22;6807;48.682;9.032;2023-07-31T11:25:29;23.50;99.90
13470;DHT22;6807;48.682;9.032;2023-07-31T11:27:56;23.20;99.90
13470;DHT22;6807;48.682;9.032;2023-07-31T11:30:23;22.90;99.90
13470;DHT22;6807;48.682;9.032;2023-07-31T11:35:18;22.30;99.90
13470;DHT22;6807;48.682;9.032;2023-07-31T11:37:44;22.10;99.90
13470;DHT22;6807;48.682;9.032;2023-07-31T11:40:13;22.10;99.90
13470;DHT22;6807;48.682;9.032;2023-07-31T11:42:40;21.90;99.90
13470;DHT22;6807;48.682;9.032;2023-07-31T11:45:09;21.80;99.90
13470;DHT22;6807;48.682;9.032;2023-07-31T11:47:37;21.70;99.90
13470;DHT22;6807;48.682;9.032;2023-07-31T11:50:05;21.70;99.90
13470;DHT22;6807;48.682;9.032;2023-07-31T11:52:36;21.80;99.90
13470;DHT22;6807;48.682;9.032;2023-07-31T11:55:05;21.80;99.90
13470;DHT22;6807;48.682;9.032;2023-07-31T11:57:37;21.90;99.90
13470;DHT22;6807;48.682;9.032;2023-07-31T12:00:07;21.90;99.90
13470;DHT22;6807;48.682;9.032;2023-07-31T12:02:35;22.00;99.90
13470;DHT22;6807;48.682;9.032;2023-07-31T12:05:02;22.20;99.90
13470;DHT22;6807;48.682;9.032;2023-07-31T12:07:46;22.20;99.90
13470;DHT22;6807;48.682;9.032;2023-07-31T12:10:25;21.90;99.90
13470;DHT22;6807;48.682;9.032;2023-07-31T12:12:59;21.90;99.90
13470;DHT22;6807;48.682;9.032;2023-07-31T12:15:34;21.90;99.90
13470;DHT22;6807;48.682;9.032;2023-07-31T12:18:20;22.20;99.90
13470;DHT22;6807;48.682;9.032;2023-07-31T12:20:48;22.50;99.90
13470;DHT22;6807;48.682;9.032;2023-07-31T12:23:17;22.20;99.90
13470;DHT22;6807;48.682;9.032;2023-07-31T12:25:45;22.20;99.90
13470;DHT22;6807;48.682;9.032;2023-07-31T12:28:13;22.00;99.90
13470;DHT22;6807;48.682;9.032;2023-07-31T12:30:41;22.00;99.90
13470;DHT22;6807;48.682;9.032;2023-07-31T12:33:13;21.70;99.90
13470;DHT22;6807;48.682;9.032;2023-07-31T12:35:43;21.70;99.90
13470;DHT22;6807;48.682;9.032;2023-07-31T12:38:11;20.70;99.90
13470;DHT22;6807;48.682;9.032;2023-07-31T12:40:38;22.40;99.90
13470;DHT22;6807;48.682;9.032;2023-07-31T12:43:05;22.30;99.90
13470;DHT22;6807;48.682;9.032;2023-07-31T12:45:34;23.40;99.90
13470;DHT22;6807;48.682;9.032;2023-07-31T12:48:01;23.70;99.90
13470;DHT22;6807;48.682;9.032;2023-07-31T12:50:28;23.80;99.90
13470;DHT22;6807;48.682;9.032;2023-07-31T12:52:55;24.60;99.90
13470;DHT22;6807;48.682;9.032;2023-07-31T12:55:22;25.10;99.90
13470;DHT22;6807;48.682;9.032;2023-07-31T12:57:49;25.50;99.90
13470;DHT22;6807;48.682;9.032;2023-07-31T13:00:16;25.40;99.90
13470;DHT22;6807;48.682;9.032;2023-07-31T13:02:44;26.10;99.90
13470;DHT22;6807;48.682;9.032;2023-07-31T13:05:11;27.20;99.90
13470;DHT22;6807;48.682;9.032;2023-07-31T13:07:38;27.40;99.90
13470;DHT22;6807;48.682;9.032;2023-07-31T13:10:06;27.10;1.00
13470;DHT22;6807;48.682;9.032;2023-07-31T13:12:33;27.30;99.90
13470;DHT22;6807;48.682;9.032;2023-07-31T13:15:00;27.40;1.00
13470;DHT22;6807;48.682;9.032;2023-07-31T13:17:27;26.60;1.00
13470;DHT22;6807;48.682;9.032;2023-07-31T13:19:55;25.80;99.90
13470;DHT22;6807;48.682;9.032;2023-07-31T13:22:22;24.90;99.90
13470;DHT22;6807;48.682;9.032;2023-07-31T13:24:49;24.30;99.90
13470;DHT22;6807;48.682;9.032;2023-07-31T13:27:16;24.20;99.90
13470;DHT22;6807;48.682;9.032;2023-07-31T13:29:45;23.90;99.90
13470;DHT22;6807;48.682;9.032;2023-07-31T13:32:11;23.20;99.90
13470;DHT22;6807;48.682;9.032;2023-07-31T13:34:38;23.10;99.90
13470;DHT22;6807;48.682;9.032;2023-07-31T13:37:05;23.00;99.90
13470;DHT22;6807;48.682;9.032;2023-07-31T13:39:33;23.00;99.90
13470;DHT22;6807;48.682;9.032;2023-07-31T13:41:59;23.00;99.90
13470;DHT22;6807;48.682;9.032;2023-07-31T13:44:26;23.40;99.90
13470;DHT22;6807;48.682;9.032;2023-07-31T13:46:53;24.30;99.90
13470;DHT22;6807;48.682;9.032;2023-07-31T13:49:20;24.00;99.90
13470;DHT22;6807;48.682;9.032;2023-07-31T13:51:47;23.60;99.90
13470;DHT22;6807;48.682;9.032;2023-07-31T13:54:15;23.40;99.90
13470;DHT22;6807;48.682;9.032;2023-07-31T13:56:42;23.60;99.90
13470;DHT22;6807;48.682;9.032;2023-07-31T13:59:09;23.40;99.90
13470;DHT22;6807;48.682;9.032;2023-07-31T14:01:36;23.30;99.90
13470;DHT22;6807;48.682;9.032;2023-07-31T14:04:03;23.20;99.90
13470;DHT22;6807;48.682;9.032;2023-07-31T14:06:30;23.40;99.90
13470;DHT22;6807;48.682;9.032;2023-07-31T14:08:57;23.30;99.90
13470;DHT22;6807;48.682;9.032;2023-07-31T14:11:26;23.10;99.90
13470;DHT22;6807;48.682;9.032;2023-07-31T14:13:52;23.00;99.90
13470;DHT22;6807;48.682;9.032;2023-07-31T14:16:19;22.90;99.90
13470;DHT22;6807;48.682;9.032;2023-07-31T14:18:46;22.60;99.90
13470;DHT22;6807;48.682;9.032;2023-07-31T14:21:13;22.40;99.90
13470;DHT22;6807;48.682;9.032;2023-07-31T14:23:40;22.30;99.90
13470;DHT22;6807;48.682;9.032;2023-07-31T14:26:07;22.20;99.90
13470;DHT22;6807;48.682;9.032;2023-07-31T14:28:35;22.40;99.90
13470;DHT22;6807;48.682;9.032;2023-07-31T14:31:02;22.70;99.90
13470;DHT22;6807;48.682;9.032;2023-07-31T14:33:29;22.70;99.90
13470;DHT22;6807;48.682;9.032;2023-07-31T14:35:55;22.70;99.90
13470;DHT22;6807;48.682;9.032;2023-07-31T14:38:22;22.70;99.90
13470;DHT22;6807;48.682;9.032;2023-07-31T14:40:49;22.60;99.90
13470;DHT22;6807;48.682;9.032;2023-07-31T14:43:16;22.70;99.90
13470;DHT22;6807;48.682;9.032;2023-07-31T14:45:44;22.80;99.90
13470;DHT22;6807;48.682;9.032;2023-07-31T14:48:12;23.10;99.90
13470;DHT22;6807;48.682;9.032;2023-07-31T14:50:39;23.10;99.90
13470;DHT22;6807;48.682;9.032;2023-07-31T14:53:06;23.00;99.90
13470;DHT22;6807;48.682;9.032;2023-07-31T14:55:33;23.10;99.90
13470;DHT22;6807;48.682;9.032;2023-07-31T14:57:59;23.20;99.90
13470;DHT22;6807;48.682;9.032;2023-07-31T15:00:26;23.20;99.90
13470;DHT22;6807;48.682;9.032;2023-07-31T15:02:54;22.80;99.90
13470;DHT22;6807;48.682;9.032;2023-07-31T15:05:21;22.80;99.90
13470;DHT22;6807;48.682;9.032;2023-07-31T15:07:48;22.80;99.90
13470;DHT22;6807;48.682;9.032;2023-07-31T15:10:15;22.90;99.90
13470;DHT22;6807;48.682;9.032;2023-07-31T15:12:42;22.80;99.90
13470;DHT22;6807;48.682;9.032;2023-07-31T15:15:09;22.60;99.90
13470;DHT22;6807;48.682;9.032;2023-07-31T15:17:36;22.70;99.90
13470;DHT22;6807;48.682;9.032;2023-07-31T15:20:05;22.60;99.90
13470;DHT22;6807;48.682;9.032;2023-07-31T15:22:32;22.80;99.90
13470;DHT22;6807;48.682;9.032;2023-07-31T15:24:59;22.90;99.90
13470;DHT22;6807;48.682;9.032;2023-07-31T15:27:26;23.40;99.90
13470;DHT22;6807;48.682;9.032;2023-07-31T15:29:52;23.50;99.90
13470;DHT22;6807;48.682;9.032;2023-07-31T15:32:19;23.50;99.90
13470;DHT22;6807;48.682;9.032;2023-07-31T15:34:47;23.50;99.90
13470;DHT22;6807;48.682;9.032;2023-07-31T15:37:17;23.40;99.90
13470;DHT22;6807;48.682;9.032;2023-07-31T15:39:44;23.20;99.90
13470;DHT22;6807;48.682;9.032;2023-07-31T15:42:11;23.20;99.90
13470;DHT22;6807;48.682;9.032;2023-07-31T15:44:37;23.20;99.90
13470;DHT22;6807;48.682;9.032;2023-07-31T15:47:04;23.20;99.90
13470;DHT22;6807;48.682;9.032;2023-07-31T15:49:31;23.20;99.90
13470;DHT22;6807;48.682;9.032;2023-07-31T15:51:58;23.00;99.90
13470;DHT22;6807;48.682;9.032;2023-07-31T15:54:26;22.70;99.90
13470;DHT22;6807;48.682;9.032;2023-07-31T15:56:53;22.80;99.90
13470;DHT22;6807;48.682;9.032;2023-07-31T15:59:20;22.90;99.90
13470;DHT22;6807;48.682;9.032;2023-07-31T16:01:47;22.90;99.90
13470;DHT22;6807;48.682;9.032;2023-07-31T16:04:14;22.90;99.90